Flight Track Log - Related Links

Times and Time Zones

All times are in EDT time to prevent confusion due to time zone crossing. See the SKW6425 flight status page for this flight to view local times or setup timezone preferences in your user account.

Time Position Orientation Groundspeed Altitude Reporting Facility
EDT Latitude Longitude Course Direction KTS MPH feet Rate Location/Type
05:14PM 33.9333 -118.4500 59° Northeast 185 213 2,300  Level Southern California TRACON
05:15PM 33.9078 -118.5119 244° Southwest 206 237 5,500 2,818 Climbing Los Angeles Center
05:16PM 33.8792 -118.5878 246° West 227 261 8,500 2,516 Climbing Los Angeles Center
05:17PM 34.2200 -117.8934 59° Northeast  Level FlightAware Approximate
05:17PM 33.8242 -118.6056 195° South 243 280 10,700  Level Los Angeles Center
05:18PM 34.2867 -117.7775 55° Northeast  Level FlightAware Approximate
05:18PM 33.8006 -118.5308 111° Southeast 277 319 12,800  Level Los Angeles Center
05:19PM 34.3588 -117.6491 59° Northeast  Level FlightAware Approximate
05:19PM 33.8794 -118.4614 36° Northeast 306 352 15,100  Level Los Angeles Center
05:20PM 33.9597 -118.3933 35° Northeast 336 387 17,000 1,694 Climbing Los Angeles Center
05:21PM 34.0144 -118.2922 57° Northeast 355 409 18,600 1,632 Climbing Los Angeles Center
05:22PM 34.0728 -118.1883 56° Northeast 363 418 20,400 1,632 Climbing Los Angeles Center
05:23PM 34.1339 -118.0806 56° Northeast 381 438 22,000 1,548 Climbing Los Angeles Center
05:24PM 34.1964 -117.9686 56° Northeast 393 452 23,600 1,500 Climbing Los Angeles Center
05:25PM 34.2608 -117.8544 56° Northeast 405 466 25,100 1,500 Climbing Los Angeles Center
05:26PM 34.3392 -117.7117 56° Northeast 419 482 26,700 1,306 Climbing Los Angeles Center
05:27PM 34.3975 -117.6086 56° Northeast 426 490 27,800 1,113 Climbing Los Angeles Center
05:28PM 34.4656 -117.4858 56° Northeast 438 504 29,000 1,152 Climbing Los Angeles Center
05:30PM 34.5481 -117.3344 56° Northeast 449 517 30,200 1,008 Climbing Los Angeles Center
05:31PM 34.6192 -117.2058 56° Northeast 459 528 31,100 919 Climbing Los Angeles Center
05:32PM 34.6900 -117.0747 57° Northeast 465 535 32,100 1,016 Climbing Los Angeles Center
05:33PM 34.7622 -116.9442 56° Northeast 466 536 33,200 1,016 Climbing Los Angeles Center
05:34PM 34.8497 -116.7886 56° Northeast 467 537 34,200 823 Climbing Los Angeles Center
05:35PM 34.9397 -116.6733 46° Northeast 468 539 34,900 726 Climbing Los Angeles Center
05:36PM 35.0303 -116.5558 47° Northeast 475 547 35,700 960 Climbing Los Angeles Center
05:37PM 35.1169 -116.4417 47° Northeast 470 541 36,900 738 Climbing Los Angeles Center
05:39PM 35.3086 -116.1906 47° Northeast 463 533 38,000 452 Climbing Los Angeles Center
05:40PM 35.3956 -116.0736 48° Northeast 465 535 38,300 387 Climbing Los Angeles Center
05:41PM 35.4844 -115.9578 47° Northeast 466 536 38,800 339 Climbing Los Angeles Center
05:42PM 35.5689 -115.8483 46° Northeast 466 536 39,000 96 Climbing Los Angeles Center
05:43PM 35.6750 -115.7061 47° Northeast 469 540 39,000  Level Los Angeles Center
05:44PM 35.7650 -115.5842 48° Northeast 479 551 39,000  Level Los Angeles Center
05:45PM 35.8564 -115.4619 47° Northeast 486 559 39,000  Level Los Angeles Center
05:46PM 35.9453 -115.3417 48° Northeast 483 556 39,000  Level Los Angeles Center
05:47PM 36.0500 -115.1983 48° Northeast 474 545 39,000  Level Los Angeles Center
05:48PM 36.1142 -115.0553 61° Northeast 485 558 39,000  Level Los Angeles Center
05:49PM 36.1611 -114.8989 70° East 486 559 39,000  Level Los Angeles Center
05:50PM 36.2075 -114.7456 69° East 483 556 39,000  Level Los Angeles Center
05:51PM 36.2542 -114.5906 69° East 483 556 39,000  Level Los Angeles Center
05:52PM 36.3006 -114.4367 69° East 482 555 39,000  Level Los Angeles Center
05:53PM 36.3569 -114.2497 69° East 482 555 39,000  Level Los Angeles Center
05:54PM 36.4042 -114.0928 69° East 485 558 39,000  Level Los Angeles Center
05:55PM 36.4517 -113.9356 69° East 486 559 39,000  Level Los Angeles Center
05:56PM 36.4981 -113.7789 70° East 486 559 39,000  Level Los Angeles Center
05:58PM 36.5525 -113.5933 70° East 486 559 39,000  Level Los Angeles Center
05:59PM 36.5994 -113.4344 70° East 488 562 39,000  Level Los Angeles Center
06:00PM 36.6458 -113.2764 70° East 489 563 39,000  Level Los Angeles Center
06:01PM 36.6917 -113.1183 70° East 490 564 39,000  Level Los Angeles Center
06:02PM 36.7381 -112.9581 70° East 490 564 39,000  Level Los Angeles Center
06:03PM 36.7836 -112.7983 70° East 491 565 39,000  Level Los Angeles Center
06:04PM 36.8378 -112.6042 71° East 497 572 39,000  Level Los Angeles Center
06:05PM 36.8847 -112.4447 70° East 497 572 39,000  Level Los Angeles Center
06:06PM 36.9292 -112.2814 71° East 497 572 39,000  Level Los Angeles Center
06:07PM 36.9750 -112.1192 70° East 497 572 39,000  Level Los Angeles Center
06:08PM 37.0294 -111.9239 71° East 498 573 39,000  Level Los Angeles Center
06:09PM 37.0739 -111.7603 71° East 498 573 39,000  Level Los Angeles Center
06:10PM 37.1275 -111.6014 67° East 498 573 39,000  Level Los Angeles Center
06:11PM 37.2008 -111.4536 58° Northeast 501 577 39,000  Level Los Angeles Center
06:12PM 37.2731 -111.3083 58° Northeast 500 575 39,000  Level Los Angeles Center
06:13PM 37.3708 -111.1022 59° Northeast 496 571 39,000  Level Denver Center
06:14PM 37.4561 -110.9256 59° Northeast 495 570 39,000  Level Denver Center
06:15PM 37.5269 -110.7783 59° Northeast 495 570 39,000  Level Denver Center
06:17PM 37.5975 -110.6317 59° Northeast 494 568 39,000  Level Denver Center
06:18PM 37.6700 -110.4769 59° Northeast 493 567 39,000  Level Denver Center
06:19PM 37.7381 -110.3356 59° Northeast 493 567 39,000  Level Denver Center
06:20PM 37.8150 -110.1703 59° Northeast 491 565 39,000  Level Denver Center
06:21PM 37.8819 -110.0278 59° Northeast 491 565 39,000  Level Denver Center
06:22PM 37.9586 -109.8639 59° Northeast 485 558 39,000  Level Denver Center
06:23PM 38.0244 -109.7231 59° Northeast 485 558 39,000  Level Denver Center
06:24PM 38.1031 -109.5519 60° Northeast 484 557 39,000  Level Denver Center
06:25PM 38.1683 -109.4106 60° Northeast 485 558 39,000  Level Denver Center
06:26PM 38.2331 -109.2697 60° Northeast 483 556 39,000  Level Denver Center
06:27PM 38.3075 -109.1025 60° Northeast 486 559 39,000  Level Denver Center
06:28PM 38.3719 -108.9619 60° Northeast 485 558 39,000 -48 Level Denver Center
06:29PM 38.4467 -108.7978 60° Northeast 484 557 38,900 -919 Descending Denver Center
06:30PM 38.5106 -108.6536 60° Northeast 484 557 37,100 -1,839 Descending Denver Center
06:31PM 38.5844 -108.4897 60° Northeast 479 551 35,100 -1,790 Descending Denver Center
06:32PM 38.6456 -108.3522 60° Northeast 469 540 33,400 -1,790 Descending Denver Center
06:33PM 38.7156 -108.1967 60° Northeast 457 526 31,400 -1,790 Descending Denver Center
06:34PM 38.7733 -108.0650 61° Northeast 446 513 29,700 -1,790 Descending Denver Center
06:35PM 38.8400 -107.9108 61° Northeast 446 513 27,700 -1,839 Descending Denver Center
06:36PM 38.8972 -107.7808 60° Northeast 443 510 25,900 -1,839 Descending Denver Center
06:37PM 38.9611 -107.6356 60° Northeast 427 491 23,900 -1,824 Descending Denver Center
06:38PM 39.0139 -107.5164 60° Northeast 410 472 22,100 -1,776 Descending Denver Center
06:39PM 39.0722 -107.3786 61° Northeast 397 457 20,200 -1,016 Descending Denver Center
06:40PM 39.1356 -107.2672 54° Northeast 401 461 20,000 -145 Descending Denver Center
06:41PM 39.2044 -107.1819 44° Northeast 366 421 19,900 -1,258 Descending Denver Center
06:42PM 39.2944 -107.1217 27° Northeast 330 380 17,400 -2,226 Descending Denver Center
06:43PM 39.3736 -107.1597 340° North 305 351 15,300 -1,355 Descending Denver Center
06:44PM 39.4331 -107.1781 347° North 251 289 14,600 -829 Descending Denver Center
06:45PM 39.4803 -107.0942 54° Northeast 246 283 13,600 -488 Descending Denver Center
06:47PM 39.4769 -107.0250 94° East 216 249 13,600 -48 Level Denver Center
06:48PM 39.4403 -106.9725 132° Southeast 207 238 13,500 -387 Descending Denver Center
06:49PM 39.3953 -106.9522 161° South 193 222 12,800 -1,113 Descending Denver Center
06:50PM 39.3372 -106.9244 160° South 192 221 11,200 -1,548 Descending Denver Center
06:51PM 39.2892 -106.9008 159° South 191 220 9,600 -1,161 Descending Denver Center
06:52PM 39.2453 -106.8797 160° South 189 217 8,800 -774 Descending Denver Center

Login

Don't have an account? Register now (free) for customized features, flight alerts, and more!